KMOX/MOX METAR and TAF weather

Enter ICAO airport designator
Station Type Date Time Source
KMOX METAR 2024/04/17 19:15 UTC NOAA

KMOX 171915Z AUTO 31017KT 10SM OVC020 08/07 A2979 RMK AO2


Station Type Date Time Source
KMOX Decoded METAR 2024/04/17 19:15 UTC NOAA

Morris, Morris Municipal Airport, MN, United States (KMOX) 45-34N 095-58W
Apr 17, 2024 - 03:15 PM EDT / 2024.04.17 1915 UTC
Wind: from the NW (310 degrees) at 20 MPH (17 KT):0
Visibility: 10 mile(s):0
Sky conditions: overcast
Temperature: 46 F (8 C)
Dew Point: 44 F (7 C)
Relative Humidity: 93%
Pressure (altimeter): 29.79 in. Hg (1008 hPa)
ob: KMOX 171915Z AUTO 31017KT 10SM OVC020 08/07 A2979 RMK AO2
cycle: 19

Station Type Date Time Source
KMOX TAF UTC NOAA

Error!

Example: see airport list